Time;durP1;ratioP1;P1;durP2;ratioP2;P2;SDS_P1;SDS_P2;PMS_P1;PMS_P2;Temp;Humidity;BMP_temperature;BMP_pressure;BME280_temperature;BME280_humidity;BME280_pressure;Samples;Min_cycle;Max_cycle;Signal;HPM_P1;HPM_P2
2022/09/11 00:01:06;;;;;;;;;;;;;;;12.31;100.00;97625.59;1668255;85;20560;-90
2022/09/11 00:03:31;;;;;;;;;;;;;;;12.26;100.00;97622.97;1661684;85;20183;-89
2022/09/11 00:06:01;;;;;;;;;;;;;;;12.20;100.00;97618.17;1661702;85;20178;-85
2022/09/11 00:08:30;;;;;;;;;;;;;;;12.17;100.00;97627.48;1663677;85;20975;-89
2022/09/11 00:10:55;;;;;;;;;;;;;;;12.17;100.00;97620.69;1669613;85;20176;-85
2022/09/11 00:13:21;;;;;;;;;;;;;;;12.17;100.00;97623.41;1661719;85;20180;-90
2022/09/11 00:15:49;;;;;;;;;;;;;;;12.18;100.00;97620.94;1679072;85;20243;-90
2022/09/11 00:18:16;;;;;;;;;;;;;;;12.20;100.00;97622.80;1689537;85;20173;-85
2022/09/11 00:20:50;;;;;;;;;;;;;;;12.21;100.00;97621.13;1689533;85;21154;-90
2022/09/11 00:23:20;;;;;;;;;;;;;;;12.23;100.00;97619.50;1689480;85;20165;-90
2022/09/11 00:25:46;;;;;;;;;;;;;;;12.25;100.00;97618.64;1672099;85;20199;-89
2022/09/11 00:28:18;;;;;;;;;;;;;;;12.24;100.00;97619.20;1686503;85;20537;-85
2022/09/11 00:30:45;;;;;;;;;;;;;;;12.21;100.00;97615.70;1675020;83;20194;-85
2022/09/11 00:33:11;;;;;;;;;;;;;;;12.20;100.00;97611.38;1661727;85;21090;-90
2022/09/11 00:35:38;;;;;;;;;;;;;;;12.21;100.00;97614.90;1677209;85;20173;-90
2022/09/11 00:38:04;;;;;;;;;;;;;;;12.24;100.00;97612.95;1689474;85;20160;-85
2022/09/11 00:40:30;;;;;;;;;;;;;;;12.28;100.00;97616.12;1652244;85;20188;-86
2022/09/11 00:42:56;;;;;;;;;;;;;;;12.34;100.00;97613.56;1661820;85;20194;-84
2022/09/11 00:45:24;;;;;;;;;;;;;;;12.45;100.00;97611.45;1661568;85;21084;-84
2022/09/11 00:47:50;;;;;;;;;;;;;;;12.51;100.00;97616.25;1661804;85;20215;-85
2022/09/11 00:50:18;;;;;;;;;;;;;;;12.52;100.00;97611.86;1661726;85;20285;-85
2022/09/11 00:52:53;;;;;;;;;;;;;;;12.55;100.00;97611.25;1661566;85;20180;-85
2022/09/11 00:55:20;;;;;;;;;;;;;;;12.58;100.00;97609.30;1661857;85;20184;-90
2022/09/11 00:57:59;;;;;;;;;;;;;;;12.64;100.00;97610.79;1662297;85;20623;-89
2022/09/11 01:00:25;;;;;;;;;;;;;;;12.70;100.00;97609.59;1662172;85;20180;-84
2022/09/11 01:02:52;;;;;;;;;;;;;;;12.73;100.00;97606.00;1661742;85;20186;-85
2022/09/11 01:05:18;;;;;;;;;;;;;;;12.70;100.00;97598.72;1673289;85;20145;-85
2022/09/11 01:07:45;;;;;;;;;;;;;;;12.73;100.00;97599.20;1670289;85;20439;-86
2022/09/11 01:10:11;;;;;;;;;;;;;;;12.74;100.00;97603.01;1681077;83;21166;-85
2022/09/11 01:12:47;;;;;;;;;;;;;;;12.75;100.00;97597.82;1668179;85;20159;-84
2022/09/11 01:15:19;;;;;;;;;;;;;;;12.73;100.00;97596.48;1683502;85;20144;-89
2022/09/11 01:18:03;;;;;;;;;;;;;;;12.71;100.00;97598.16;1689474;85;20160;-85
2022/09/11 01:20:35;;;;;;;;;;;;;;;12.74;100.00;97593.49;1689351;85;20196;-90
2022/09/11 01:23:11;;;;;;;;;;;;;;;12.77;100.00;97591.52;1689611;85;20737;-84
2022/09/11 01:25:49;;;;;;;;;;;;;;;12.78;100.00;97583.61;1688152;85;20517;-85
2022/09/11 01:28:17;;;;;;;;;;;;;;;12.73;100.00;97582.34;1646142;86;20182;-84
2022/09/11 01:30:46;;;;;;;;;;;;;;;12.74;100.00;97587.25;1669258;85;20196;-90
2022/09/11 01:33:27;;;;;;;;;;;;;;;12.77;100.00;97587.44;1661859;85;20196;-89
2022/09/11 01:36:02;;;;;;;;;;;;;;;12.77;100.00;97579.28;1686404;85;21162;-85
2022/09/11 01:38:45;;;;;;;;;;;;;;;12.79;100.00;97579.77;1640799;85;20197;-85
2022/09/11 01:41:15;;;;;;;;;;;;;;;12.83;100.00;97574.55;1665369;85;20158;-90
2022/09/11 01:43:56;;;;;;;;;;;;;;;12.83;100.00;97578.63;1661770;85;20196;-84
2022/09/11 01:46:22;;;;;;;;;;;;;;;12.85;100.00;97579.13;1653925;85;20163;-90
2022/09/11 01:48:50;;;;;;;;;;;;;;;12.89;100.00;97589.06;1661698;85;21087;-90
2022/09/11 01:51:21;;;;;;;;;;;;;;;12.92;100.00;97591.20;1680753;85;20161;-84
2022/09/11 01:53:49;;;;;;;;;;;;;;;12.95;100.00;97594.66;1689528;85;20193;-86
2022/09/11 01:56:18;;;;;;;;;;;;;;;12.97;100.00;97593.79;1682383;85;20557;-89
2022/09/11 01:58:44;;;;;;;;;;;;;;;13.01;100.00;97589.92;1660485;85;20583;-84
2022/09/11 02:01:14;;;;;;;;;;;;;;;13.00;100.00;97588.31;1679768;85;21924;-86
2022/09/11 02:03:43;;;;;;;;;;;;;;;13.01;100.00;97586.40;1689361;83;20165;-85
2022/09/11 02:06:14;;;;;;;;;;;;;;;13.00;100.00;97588.31;1672487;85;20164;-85
2022/09/11 02:08:46;;;;;;;;;;;;;;;12.97;100.00;97586.99;1682759;85;20468;-85
2022/09/11 02:11:13;;;;;;;;;;;;;;;12.99;100.00;97597.59;1666765;85;20187;-85
2022/09/11 02:14:09;;;;;;;;;;;;;;;13.00;100.00;97599.20;1661675;85;21092;-90
2022/09/11 02:16:48;;;;;;;;;;;;;;;12.99;100.00;97603.03;1671667;85;20201;-90
2022/09/11 02:19:17;;;;;;;;;;;;;;;12.98;100.00;97593.23;1689538;85;20166;-85
2022/09/11 02:21:43;;;;;;;;;;;;;;;12.98;100.00;97591.31;1688992;85;20559;-85
2022/09/11 02:24:09;;;;;;;;;;;;;;;12.97;100.00;97587.55;1689383;85;20186;-85
2022/09/11 02:26:38;;;;;;;;;;;;;;;12.98;100.00;97587.80;1683043;85;21251;-91
2022/09/11 02:29:04;;;;;;;;;;;;;;;13.01;100.00;97583.13;1661887;85;20582;-91
2022/09/11 02:31:30;;;;;;;;;;;;;;;13.02;100.00;97579.84;1661610;85;20285;-89
2022/09/11 02:33:56;;;;;;;;;;;;;;;13.04;100.00;97573.54;1661672;85;20186;-86
2022/09/11 02:36:35;;;;;;;;;;;;;;;13.09;100.00;97572.88;1661684;85;20439;-91
2022/09/11 02:39:24;;;;;;;;;;;;;;;13.02;100.00;97569.77;1661664;85;21200;-89
2022/09/11 02:42:17;;;;;;;;;;;;;;;13.02;100.00;97576.57;1688755;85;20150;-85
2022/09/11 02:44:52;;;;;;;;;;;;;;;13.03;100.00;97574.66;1687901;85;20165;-88
2022/09/11 02:47:39;;;;;;;;;;;;;;;13.06;100.00;97581.63;1661503;85;20638;-90
2022/09/11 02:50:08;;;;;;;;;;;;;;;13.12;100.00;97574.98;1671890;85;20460;-85
2022/09/11 02:52:54;;;;;;;;;;;;;;;13.16;100.00;97577.34;1689697;83;21066;-90
2022/09/11 02:55:26;;;;;;;;;;;;;;;13.20;100.00;97574.28;1685482;83;20459;-85
2022/09/11 02:58:01;;;;;;;;;;;;;;;13.23;100.00;97576.94;1689304;83;20492;-85
2022/09/11 03:00:27;;;;;;;;;;;;;;;13.24;100.00;97580.73;1667558;83;20179;-86
2022/09/11 03:02:53;;;;;;;;;;;;;;;13.26;100.00;97574.98;1661807;85;20291;-89
2022/09/11 03:05:19;;;;;;;;;;;;;;;13.22;100.00;97576.13;1665500;85;21228;-89
2022/09/11 03:07:45;;;;;;;;;;;;;;;13.22;100.00;97576.69;1669433;85;20224;-90
2022/09/11 03:10:10;;;;;;;;;;;;;;;13.22;100.00;97576.13;1678733;85;20209;-86
2022/09/11 03:12:37;;;;;;;;;;;;;;;13.20;100.00;97569.39;1661720;85;20548;-85
2022/09/11 03:15:04;;;;;;;;;;;;;;;13.16;100.00;97571.91;1661772;85;20581;-86
2022/09/11 03:17:31;;;;;;;;;;;;;;;13.12;100.00;97568.17;1661800;85;21226;-89
2022/09/11 03:19:57;;;;;;;;;;;;;;;13.09;100.00;97570.16;1661853;85;20171;-89
2022/09/11 03:22:23;;;;;;;;;;;;;;;13.03;100.00;97571.94;1677361;85;20191;-86
2022/09/11 03:24:49;;;;;;;;;;;;;;;12.96;100.00;97570.98;1689758;85;20213;-85
2022/09/11 03:27:16;;;;;;;;;;;;;;;12.93;100.00;97569.69;1689708;85;20502;-86
2022/09/11 03:29:42;;;;;;;;;;;;;;;12.90;100.00;97563.52;1684513;85;21133;-89
2022/09/11 03:32:08;;;;;;;;;;;;;;;12.88;100.00;97566.27;1661690;85;20167;-90
2022/09/11 03:34:34;;;;;;;;;;;;;;;12.83;100.00;97567.20;1676839;85;20985;-89
2022/09/11 03:37:01;;;;;;;;;;;;;;;12.82;100.00;97567.48;1689418;85;20213;-90
2022/09/11 03:39:27;;;;;;;;;;;;;;;12.82;100.00;97572.91;1678785;85;20194;-90
2022/09/11 03:41:53;;;;;;;;;;;;;;;12.79;100.00;97576.25;1689523;85;21134;-85
2022/09/11 03:44:20;;;;;;;;;;;;;;;12.77;100.00;97573.84;1689582;85;20193;-85
2022/09/11 03:46:46;;;;;;;;;;;;;;;12.76;100.00;97572.80;1685844;85;20444;-84
2022/09/11 03:49:12;;;;;;;;;;;;;;;12.73;100.00;97572.02;1661634;85;20575;-89
2022/09/11 03:51:38;;;;;;;;;;;;;;;12.70;100.00;97576.97;1668463;85;20188;-89
2022/09/11 03:54:04;;;;;;;;;;;;;;;12.67;100.00;97578.14;1689531;85;21085;-85
2022/09/11 03:56:30;;;;;;;;;;;;;;;12.68;100.00;97577.83;1667278;85;20196;-90
2022/09/11 03:58:56;;;;;;;;;;;;;;;12.69;100.00;97580.00;1661618;85;20317;-86
2022/09/11 04:01:22;;;;;;;;;;;;;;;12.71;100.00;97579.93;1665544;85;20159;-90
2022/09/11 04:03:48;;;;;;;;;;;;;;;12.74;100.00;97582.63;1661687;85;20180;-90
2022/09/11 04:06:15;;;;;;;;;;;;;;;12.76;100.00;97584.47;1663961;85;21785;-86
2022/09/11 04:08:41;;;;;;;;;;;;;;;12.77;100.00;97588.00;1679270;85;20191;-85
2022/09/11 04:11:07;;;;;;;;;;;;;;;12.78;100.00;97589.05;1662334;83;20279;-90
2022/09/11 04:13:34;;;;;;;;;;;;;;;12.74;100.00;97580.45;1661849;85;20199;-89
2022/09/11 04:16:06;;;;;;;;;;;;;;;12.71;100.00;97574.50;1661690;85;20179;-85
2022/09/11 04:18:34;;;;;;;;;;;;;;;12.71;100.00;97577.22;1663829;85;21086;-85
2022/09/11 04:21:04;;;;;;;;;;;;;;;12.69;100.00;97582.16;1669479;85;20452;-86
2022/09/11 04:23:30;;;;;;;;;;;;;;;12.71;100.00;97578.58;1682047;83;20445;-89
2022/09/11 04:25:56;;;;;;;;;;;;;;;12.76;100.00;97579.59;1661717;85;20258;-90
2022/09/11 04:28:22;;;;;;;;;;;;;;;12.77;100.00;97587.44;1661808;85;20152;-91
2022/09/11 04:30:48;;;;;;;;;;;;;;;12.76;100.00;97590.47;1666901;85;21050;-88
2022/09/11 04:33:14;;;;;;;;;;;;;;;12.78;100.00;97584.16;1661784;85;20174;-89
2022/09/11 04:35:39;;;;;;;;;;;;;;;12.81;100.00;97588.42;1674225;85;20255;-90
2022/09/11 04:38:06;;;;;;;;;;;;;;;12.83;100.00;97588.14;1664703;85;20236;-91
2022/09/11 04:40:33;;;;;;;;;;;;;;;12.85;100.00;97579.13;1662383;80;20259;-85
2022/09/11 04:42:59;;;;;;;;;;;;;;;12.84;100.00;97585.12;1662849;85;21209;-85
2022/09/11 04:45:26;;;;;;;;;;;;;;;12.85;100.00;97585.92;1665618;85;20176;-84
2022/09/11 04:47:52;;;;;;;;;;;;;;;12.87;100.00;97580.42;1661664;85;20175;-90
2022/09/11 04:50:18;;;;;;;;;;;;;;;12.89;100.00;97581.47;1672135;85;20210;-91
2022/09/11 04:52:44;;;;;;;;;;;;;;;12.92;100.00;97580.88;1681133;85;20181;-90
2022/09/11 04:55:10;;;;;;;;;;;;;;;12.97;100.00;97580.75;1672188;85;21142;-90
2022/09/11 04:57:36;;;;;;;;;;;;;;;12.96;100.00;97569.63;1679204;85;20154;-90
2022/09/11 05:00:04;;;;;;;;;;;;;;;12.97;100.00;97574.75;1689612;85;20190;-85
2022/09/11 05:02:30;;;;;;;;;;;;;;;13.02;100.00;97576.57;1689377;85;20627;-90
2022/09/11 05:04:57;;;;;;;;;;;;;;;13.05;100.00;97582.75;1689653;85;20795;-85
2022/09/11 05:07:24;;;;;;;;;;;;;;;13.05;100.00;97578.66;1689313;85;21102;-89
2022/09/11 05:09:53;;;;;;;;;;;;;;;13.09;100.00;97571.52;1666888;83;20165;-86
2022/09/11 05:12:18;;;;;;;;;;;;;;;13.13;100.00;97571.70;1661460;85;20567;-85
2022/09/11 05:14:43;;;;;;;;;;;;;;;13.16;100.00;97575.98;1667190;85;20527;-86
2022/09/11 05:17:12;;;;;;;;;;;;;;;13.19;100.00;97569.95;1689236;85;20239;-90
2022/09/11 05:19:37;;;;;;;;;;;;;;;13.23;100.00;97566.05;1685306;85;21092;-86
2022/09/11 05:22:03;;;;;;;;;;;;;;;13.26;100.00;97570.34;1672321;85;20181;-85
2022/09/11 05:24:29;;;;;;;;;;;;;;;13.32;100.00;97567.48;1675379;85;20175;-85
2022/09/11 05:26:57;;;;;;;;;;;;;;;13.36;100.00;97574.73;1688326;85;20239;-85
2022/09/11 05:29:22;;;;;;;;;;;;;;;13.39;100.00;97574.11;1677376;85;20168;-89
2022/09/11 05:31:48;;;;;;;;;;;;;;;13.43;100.00;97574.31;1670214;85;20989;-85
2022/09/11 05:34:14;;;;;;;;;;;;;;;13.46;100.00;97576.41;1689407;85;20484;-90
2022/09/11 05:36:40;;;;;;;;;;;;;;;13.49;100.00;97575.77;1680877;85;20461;-85
2022/09/11 05:39:06;;;;;;;;;;;;;;;13.49;100.00;97576.58;1661523;85;20178;-90
2022/09/11 05:41:32;;;;;;;;;;;;;;;13.52;100.00;97582.78;1667098;85;20223;-86
2022/09/11 05:43:57;;;;;;;;;;;;;;;13.60;100.00;97583.97;1689422;85;21093;-90
2022/09/11 05:46:24;;;;;;;;;;;;;;;13.65;100.00;97581.09;1689356;83;20297;-89
2022/09/11 05:48:51;;;;;;;;;;;;;;;13.61;100.00;97584.20;1682005;85;32422;-90
2022/09/11 05:51:20;;;;;;;;;;;;;;;13.62;100.00;97583.65;1661657;85;20560;-89
2022/09/11 05:53:49;;;;;;;;;;;;;;;13.64;100.00;97581.41;1661718;85;20468;-85
2022/09/11 05:56:19;;;;;;;;;;;;;;;13.64;100.00;97580.05;1661786;85;21083;-90
2022/09/11 05:58:45;;;;;;;;;;;;;;;13.62;100.00;97580.37;1661543;85;20176;-86
2022/09/11 06:01:12;;;;;;;;;;;;;;;13.62;100.00;97573.56;1661838;85;20196;-86
2022/09/11 06:03:38;;;;;;;;;;;;;;;13.62;100.00;97572.76;1665303;85;20192;-85
2022/09/11 06:06:06;;;;;;;;;;;;;;;13.60;100.00;97579.88;1689449;84;20172;-89
2022/09/11 06:08:33;;;;;;;;;;;;;;;13.62;100.00;97583.09;1681046;85;20648;-89
2022/09/11 06:10:59;;;;;;;;;;;;;;;13.62;100.00;97574.12;1662190;83;20184;-86
2022/09/11 06:13:27;;;;;;;;;;;;;;;13.64;100.00;97578.69;1662752;85;20191;-90
2022/09/11 06:15:53;;;;;;;;;;;;;;;13.66;100.00;97581.90;1656713;86;20317;-85
2022/09/11 06:18:19;;;;;;;;;;;;;;;13.69;100.00;97578.02;1661445;85;20737;-86
2022/09/11 06:20:58;;;;;;;;;;;;;;;13.73;100.00;97585.80;1661386;85;21220;-90
2022/09/11 06:23:24;;;;;;;;;;;;;;;13.77;100.00;97582.72;1661526;85;20175;-85
2022/09/11 06:25:52;;;;;;;;;;;;;;;13.81;100.00;97580.97;1661857;85;20187;-89
2022/09/11 06:28:18;;;;;;;;;;;;;;;13.86;100.00;97586.86;1661585;85;20172;-85
2022/09/11 06:30:46;;;;;;;;;;;;;;;13.89;100.00;97592.23;1662049;85;20770;-86
2022/09/11 06:33:12;;;;;;;;;;;;;;;13.91;100.00;97599.52;1661438;85;22050;-86
2022/09/11 06:35:38;;;;;;;;;;;;;;;13.91;100.00;97598.16;1679000;85;20501;-90
2022/09/11 06:38:04;;;;;;;;;;;;;;;13.95;100.00;97593.16;1689312;85;20742;-89
2022/09/11 06:40:30;;;;;;;;;;;;;;;13.95;100.00;97601.89;1674757;85;20166;-89
2022/09/11 06:42:57;;;;;;;;;;;;;;;13.95;100.00;97597.24;1661556;85;20168;-90
2022/09/11 06:45:23;;;;;;;;;;;;;;;13.98;100.00;97603.42;1685594;85;21088;-90
2022/09/11 06:47:50;;;;;;;;;;;;;;;14.03;100.00;97599.22;1689260;85;20161;-91
2022/09/11 06:50:16;;;;;;;;;;;;;;;14.09;100.00;97602.03;1689502;85;20181;-86
2022/09/11 06:52:41;;;;;;;;;;;;;;;14.15;100.00;97608.72;1670734;85;20198;-90
2022/09/11 06:55:12;;;;;;;;;;;;;;;14.22;100.00;97600.91;1661704;85;20174;-86
2022/09/11 06:57:35;;;;;;;;;;;;;;;14.23;100.00;97603.88;1678022;85;21827;-86
2022/09/11 07:00:01;;;;;;;;;;;;;;;14.27;100.00;97602.12;1669394;85;20740;-86
2022/09/11 07:02:27;;;;;;;;;;;;;;;14.30;100.00;97598.22;1661561;85;20204;-89
2022/09/11 07:04:53;;;;;;;;;;;;;;;14.37;100.00;97604.59;1661793;85;20202;-85
2022/09/11 07:07:19;;;;;;;;;;;;;;;14.40;100.00;97602.03;1676074;85;20167;-90
2022/09/11 07:09:44;;;;;;;;;;;;;;;14.45;100.00;97594.84;1667698;83;21093;-89
2022/09/11 07:12:10;;;;;;;;;;;;;;;14.51;100.00;97596.33;1661676;85;20184;-86
2022/09/11 07:14:37;;;;;;;;;;;;;;;14.54;100.00;97592.98;1661502;85;20293;-89
2022/09/11 07:17:03;;;;;;;;;;;;;;;14.56;100.00;97597.56;1677814;85;20163;-89
2022/09/11 07:19:29;;;;;;;;;;;;;;;14.61;100.00;97599.59;1675209;85;20291;-89
2022/09/11 07:21:54;;;;;;;;;;;;;;;14.73;100.00;97594.08;1689668;85;21310;-90
2022/09/11 07:24:20;;;;;;;;;;;;;;;14.81;100.00;97587.28;1678645;85;20410;-86
2022/09/11 07:26:46;;;;;;;;;;;;;;;15.09;100.00;97591.91;1689497;85;20732;-90
2022/09/11 07:29:12;;;;;;;;;;;;;;;15.34;100.00;97590.32;1689246;85;20515;-91
2022/09/11 07:31:38;;;;;;;;;;;;;;;15.33;100.00;97587.36;1676208;85;20275;-89
2022/09/11 07:34:04;;;;;;;;;;;;;;;15.48;100.00;97586.08;1689469;85;21088;-90
2022/09/11 07:36:31;;;;;;;;;;;;;;;15.71;100.00;97592.17;1689190;85;20172;-87
2022/09/11 07:38:57;;;;;;;;;;;;;;;15.95;100.00;97580.73;1689125;85;20456;-86
2022/09/11 07:41:23;;;;;;;;;;;;;;;16.26;100.00;97583.23;1689605;85;20817;-91
2022/09/11 07:43:53;;;;;;;;;;;;;;;16.31;100.00;97581.66;1689525;85;20137;-90
2022/09/11 07:46:19;;;;;;;;;;;;;;;16.45;100.00;97580.09;1669612;85;21032;-90
2022/09/11 07:48:45;;;;;;;;;;;;;;;16.43;100.00;97576.89;1666398;85;20176;-91
2022/09/11 07:51:12;;;;;;;;;;;;;;;16.48;100.00;97584.33;1681416;83;20200;-87
2022/09/11 07:53:44;;;;;;;;;;;;;;;16.54;100.00;97572.08;1661409;84;20156;-86
2022/09/11 07:56:16;;;;;;;;;;;;;;;16.57;100.00;97587.02;1661530;85;20145;-86
2022/09/11 07:58:42;;;;;;;;;;;;;;;16.59;100.00;97585.58;1661339;85;21017;-86
2022/09/11 08:01:09;;;;;;;;;;;;;;;16.55;100.00;97597.50;1661469;85;20170;-90
2022/09/11 08:03:35;;;;;;;;;;;;;;;16.41;100.00;97599.09;1661496;85;20170;-90
2022/09/11 08:06:12;;;;;;;;;;;;;;;16.23;100.00;97595.59;1661943;85;20174;-86
2022/09/11 08:08:39;;;;;;;;;;;;;;;16.16;100.00;97600.78;1660874;85;20171;-90
2022/09/11 08:11:07;;;;;;;;;;;;;;;16.11;100.00;97608.34;1665320;85;21214;-91
2022/09/11 08:13:33;;;;;;;;;;;;;;;16.01;100.00;97611.66;1661576;85;20169;-86
2022/09/11 08:15:59;;;;;;;;;;;;;;;15.92;100.00;97610.08;1661965;85;20269;-86
2022/09/11 08:18:25;;;;;;;;;;;;;;;15.82;100.00;97611.79;1661705;85;20502;-90
2022/09/11 08:20:51;;;;;;;;;;;;;;;15.70;100.00;97611.86;1675439;85;20249;-85
2022/09/11 08:23:17;;;;;;;;;;;;;;;15.63;100.00;97612.10;1663867;85;21154;-86
2022/09/11 08:25:42;;;;;;;;;;;;;;;15.69;100.00;97614.92;1661858;85;20254;-86
2022/09/11 08:28:08;;;;;;;;;;;;;;;15.77;100.00;97614.11;1661615;85;20250;-86
2022/09/11 08:30:37;;;;;;;;;;;;;;;15.90;100.00;97615.07;1661482;85;20196;-90
2022/09/11 08:33:08;;;;;;;;;;;;;;;16.04;100.00;97600.08;1661744;85;20181;-86
2022/09/11 08:35:34;;;;;;;;;;;;;;;16.34;100.00;97610.53;1661901;85;21156;-86
2022/09/11 08:38:01;;;;;;;;;;;;;;;17.45;100.00;97613.02;1661421;85;20196;-90
2022/09/11 08:40:29;;;;;;;;;;;;;;;17.72;100.00;97613.05;1661925;85;20195;-90
2022/09/11 08:42:57;;;;;;;;;;;;;;;17.87;100.00;97612.20;1682414;85;20413;-86
2022/09/11 08:45:22;;;;;;;;;;;;;;;17.98;100.00;97608.70;1678660;85;20172;-86
2022/09/11 08:47:51;;;;;;;;;;;;;;;17.87;99.99;97606.16;1689311;85;21072;-90
2022/09/11 08:50:28;;;;;;;;;;;;;;;17.80;99.42;97608.64;1671884;85;20445;-90
2022/09/11 08:52:55;;;;;;;;;;;;;;;18.18;96.49;97602.92;1689435;84;20192;-91
2022/09/11 08:55:25;;;;;;;;;;;;;;;18.12;96.85;97608.41;1666170;85;20173;-90
2022/09/11 08:58:01;;;;;;;;;;;;;;;18.11;98.41;97614.20;1681592;85;20162;-91
2022/09/11 09:00:32;;;;;;;;;;;;;;;18.09;98.77;97609.06;1689532;83;21848;-85
2022/09/11 09:03:18;;;;;;;;;;;;;;;17.86;98.07;97611.95;1667504;85;20188;-86
2022/09/11 09:05:51;;;;;;;;;;;;;;;17.72;97.47;97619.91;1674823;85;20456;-91
2022/09/11 09:08:39;;;;;;;;;;;;;;;17.70;97.18;97618.65;1683150;85;20174;-86
2022/09/11 09:11:14;;;;;;;;;;;;;;;17.70;97.72;97615.91;1662440;83;20205;-88
2022/09/11 09:14:00;;;;;;;;;;;;;;;17.61;96.93;97614.58;1689182;83;21195;-90
2022/09/11 09:16:44;;;;;;;;;;;;;;;17.56;96.32;97617.52;1677952;85;20153;-85
2022/09/11 09:19:13;;;;;;;;;;;;;;;17.49;96.87;97625.45;1689320;83;20193;-90
2022/09/11 09:22:06;;;;;;;;;;;;;;;17.54;96.45;97617.05;1661979;83;20156;-86
2022/09/11 09:24:39;;;;;;;;;;;;;;;17.48;94.99;97623.29;1675691;85;20173;-86
2022/09/11 09:27:04;;;;;;;;;;;;;;;17.35;95.51;97623.00;1688921;85;21152;-91
2022/09/11 09:29:34;;;;;;;;;;;;;;;17.29;94.92;97624.89;1667212;85;20263;-86
2022/09/11 09:32:02;;;;;;;;;;;;;;;17.23;95.43;97622.91;1661613;85;20191;-86
2022/09/11 09:34:30;;;;;;;;;;;;;;;17.10;95.27;97626.14;1664366;83;20940;-86
2022/09/11 09:37:07;;;;;;;;;;;;;;;17.04;95.03;97620.61;1671893;85;20563;-86
2022/09/11 09:39:35;;;;;;;;;;;;;;;17.19;96.70;97629.63;1689676;83;21134;-87
2022/09/11 09:42:07;;;;;;;;;;;;;;;17.24;95.58;97621.77;1661872;85;20524;-86
2022/09/11 09:44:49;;;;;;;;;;;;;;;17.57;96.57;97614.20;1675264;85;20184;-86
2022/09/11 09:47:15;;;;;;;;;;;;;;;17.75;93.39;97620.59;1661531;85;20174;-86
2022/09/11 09:49:42;;;;;;;;;;;;;;;17.83;91.73;97620.86;1660942;85;20153;-91
2022/09/11 09:52:19;;;;;;;;;;;;;;;18.06;93.41;97623.46;1689701;84;21089;-91
2022/09/11 09:54:59;;;;;;;;;;;;;;;18.05;90.60;97627.34;1689469;83;20167;-91
2022/09/11 09:57:28;;;;;;;;;;;;;;;18.19;90.96;97616.86;1674048;85;20483;-91
2022/09/11 09:59:58;;;;;;;;;;;;;;;18.46;89.34;97629.17;1669400;85;20466;-86
2022/09/11 10:02:41;;;;;;;;;;;;;;;18.66;90.16;97619.27;1689249;85;20451;-86
2022/09/11 10:05:25;;;;;;;;;;;;;;;18.54;89.77;97622.78;1689718;85;20997;-89
2022/09/11 10:07:52;;;;;;;;;;;;;;;18.34;88.32;97616.78;1688767;85;20173;-90
2022/09/11 10:10:27;;;;;;;;;;;;;;;18.18;89.83;97618.58;1670769;83;20449;-86
2022/09/11 10:13:02;;;;;;;;;;;;;;;17.87;88.91;97625.34;1689484;85;20169;-87
2022/09/11 10:15:28;;;;;;;;;;;;;;;17.99;88.74;97624.58;1679116;83;20514;-86
2022/09/11 10:17:58;;;;;;;;;;;;;;;18.27;90.41;97618.70;1661734;85;21850;-86
2022/09/11 10:20:25;;;;;;;;;;;;;;;18.50;90.38;97625.16;1663988;85;20181;-86
2022/09/11 10:22:53;;;;;;;;;;;;;;;18.55;89.94;97623.01;1661400;85;20183;-92
2022/09/11 10:25:25;;;;;;;;;;;;;;;18.75;89.91;97622.70;1676582;85;20412;-86
2022/09/11 10:28:01;;;;;;;;;;;;;;;18.64;89.53;97620.16;1661569;85;20179;-92
2022/09/11 10:30:34;;;;;;;;;;;;;;;18.60;89.76;97620.59;1686254;85;22038;-87
2022/09/11 10:33:03;;;;;;;;;;;;;;;18.45;89.47;97617.94;1689357;85;20157;-91
2022/09/11 10:35:29;;;;;;;;;;;;;;;18.29;90.84;97621.94;1664494;85;20167;-92
2022/09/11 10:38:20;;;;;;;;;;;;;;;18.10;90.83;97620.83;1671223;85;20181;-86
2022/09/11 10:40:55;;;;;;;;;;;;;;;17.93;90.74;97626.72;1671198;85;20487;-92
2022/09/11 10:43:23;;;;;;;;;;;;;;;17.59;90.83;97616.83;1661818;85;21294;-86
2022/09/11 10:46:03;;;;;;;;;;;;;;;17.27;89.43;97618.95;1688222;85;20161;-91
2022/09/11 10:48:29;;;;;;;;;;;;;;;17.03;90.09;97622.32;1675258;85;20165;-85
2022/09/11 10:51:06;;;;;;;;;;;;;;;17.06;90.47;97625.19;1661730;85;20182;-86
2022/09/11 10:53:40;;;;;;;;;;;;;;;17.17;90.99;97620.12;1649995;85;20131;-86
2022/09/11 10:56:06;;;;;;;;;;;;;;;17.28;91.16;97624.09;1679134;85;21098;-92
2022/09/11 10:58:33;;;;;;;;;;;;;;;17.41;90.88;97625.75;1689225;85;20175;-86
2022/09/11 11:00:58;;;;;;;;;;;;;;;17.52;91.31;97628.09;1673607;85;20200;-91
2022/09/11 11:03:26;;;;;;;;;;;;;;;17.61;90.69;97624.73;1662447;85;20728;-86
2022/09/11 11:05:55;;;;;;;;;;;;;;;17.48;89.41;97631.50;1671005;85;20171;-86
2022/09/11 11:08:59;;;;;;;;;;;;;;;17.09;89.47;97634.12;1662445;85;21076;-91
2022/09/11 11:11:49;;;;;;;;;;;;;;;17.19;90.36;97631.56;1663837;85;20151;-90
2022/09/11 11:14:48;;;;;;;;;;;;;;;17.39;90.06;97629.97;1672301;85;20583;-86
2022/09/11 11:17:27;;;;;;;;;;;;;;;17.53;88.61;97623.67;1676161;85;20487;-86
2022/09/11 11:20:09;;;;;;;;;;;;;;;17.82;89.18;97628.84;1661767;85;20420;-92
2022/09/11 11:22:55;;;;;;;;;;;;;;;18.04;88.38;97627.91;1661584;84;21105;-91
2022/09/11 11:25:42;;;;;;;;;;;;;;;18.26;88.74;97637.67;1680769;85;20196;-86
2022/09/11 11:28:24;;;;;;;;;;;;;;;18.38;87.77;97632.81;1646605;86;20460;-90
2022/09/11 11:31:05;;;;;;;;;;;;;;;18.54;87.55;97634.30;1666931;85;20196;-91
2022/09/11 11:33:55;;;;;;;;;;;;;;;18.56;86.81;97638.33;1661465;85;20434;-91
2022/09/11 11:36:33;;;;;;;;;;;;;;;18.58;85.26;97635.23;1681750;85;21247;-86
2022/09/11 11:39:02;;;;;;;;;;;;;;;18.61;85.92;97644.94;1689420;83;20189;-86
2022/09/11 11:41:33;;;;;;;;;;;;;;;18.59;84.17;97632.72;1684654;85;20172;-91
2022/09/11 11:44:01;;;;;;;;;;;;;;;18.57;84.78;97637.75;1661665;85;20196;-92
2022/09/11 11:46:32;;;;;;;;;;;;;;;18.73;86.04;97635.17;1666651;85;20176;-89
2022/09/11 11:49:04;;;;;;;;;;;;;;;18.89;84.83;97640.22;1681992;85;21057;-86
2022/09/11 11:51:39;;;;;;;;;;;;;;;18.97;84.61;97635.73;1686769;85;20161;-87
2022/09/11 11:54:24;;;;;;;;;;;;;;;19.09;83.74;97636.54;1689389;85;20162;-91
2022/09/11 11:56:52;;;;;;;;;;;;;;;19.07;82.49;97637.46;1680511;85;20168;-86
2022/09/11 11:59:30;;;;;;;;;;;;;;;19.11;82.96;97644.42;1661640;85;20174;-87
2022/09/11 12:02:04;;;;;;;;;;;;;;;19.30;80.82;97637.77;1661145;85;21027;-87
2022/09/11 12:04:56;;;;;;;;;;;;;;;19.22;81.76;97641.43;1661064;85;20215;-86
2022/09/11 12:07:25;;;;;;;;;;;;;;;19.32;82.14;97637.44;1689597;85;20181;-90
2022/09/11 12:09:53;;;;;;;;;;;;;;;19.31;81.86;97635.27;1666263;83;20187;-90
2022/09/11 12:12:20;;;;;;;;;;;;;;;19.09;80.26;97640.66;1661564;85;20469;-91
2022/09/11 12:14:53;;;;;;;;;;;;;;;18.87;80.78;97642.48;1661618;85;21240;-90
2022/09/11 12:17:24;;;;;;;;;;;;;;;18.64;81.84;97647.59;1661706;85;20348;-91
2022/09/11 12:20:12;;;;;;;;;;;;;;;18.41;82.75;97640.92;1679032;85;20158;-89
2022/09/11 12:22:47;;;;;;;;;;;;;;;18.29;83.32;97643.08;1671049;85;20201;-89
2022/09/11 12:25:23;;;;;;;;;;;;;;;18.25;83.22;97642.94;1683457;85;20153;-86
2022/09/11 12:28:09;;;;;;;;;;;;;;;18.50;83.84;97642.42;1689577;85;21893;-87
2022/09/11 12:31:01;;;;;;;;;;;;;;;18.75;83.74;97641.91;1675081;85;20203;-90
2022/09/11 12:33:46;;;;;;;;;;;;;;;18.99;83.55;97638.37;1687932;83;20185;-91
2022/09/11 12:36:15;;;;;;;;;;;;;;;19.25;80.52;97639.39;1684243;85;20150;-91
2022/09/11 12:38:48;;;;;;;;;;;;;;;19.14;81.85;97625.33;1689416;85;20172;-86
2022/09/11 12:41:16;;;;;;;;;;;;;;;19.29;80.20;97625.75;1689554;83;21942;-92
2022/09/11 12:43:45;;;;;;;;;;;;;;;19.32;79.70;97623.13;1689207;85;20173;-86
2022/09/11 12:46:24;;;;;;;;;;;;;;;19.36;80.22;97625.97;1688149;83;20149;-89
2022/09/11 12:48:54;;;;;;;;;;;;;;;19.42;80.47;97622.65;1661489;85;20158;-86
2022/09/11 12:51:25;;;;;;;;;;;;;;;19.36;79.33;97622.66;1661838;85;20456;-86
2022/09/11 12:53:52;;;;;;;;;;;;;;;19.22;79.93;97625.53;1661936;85;21020;-86
2022/09/11 12:56:22;;;;;;;;;;;;;;;19.09;80.02;97621.44;1662532;85;20372;-90